Time;durP1;ratioP1;P1;durP2;ratioP2;P2;SDS_P1;SDS_P2;PMS_P1;PMS_P2;Temp;Humidity;BMP_temperature;BMP_pressure;BME280_temperature;BME280_humidity;BME280_pressure;Samples;Min_cycle;Max_cycle;Signal;HPM_P1;HPM_P2
2023/05/05 00:01:54;;;;;;;5.07;3.50;;;;;;;20.67;58.59;101498.72;5055063;28;20056;-57
2023/05/05 00:04:23;;;;;;;4.47;3.33;;;;;;;20.67;58.55;101504.09;5054676;28;20052;-57
2023/05/05 00:06:50;;;;;;;4.70;4.15;;;;;;;20.67;58.49;101501.41;5054628;28;20056;-57
2023/05/05 00:09:18;;;;;;;4.65;3.55;;;;;;;20.68;58.59;101499.59;5054607;28;20045;-56
2023/05/05 00:11:46;;;;;;;4.00;3.47;;;;;;;20.67;58.65;101496.03;5050165;28;20045;-56
2023/05/05 00:14:13;;;;;;;4.10;3.65;;;;;;;20.66;58.66;101491.66;5033174;28;20156;-56
2023/05/05 00:16:41;;;;;;;5.03;3.97;;;;;;;20.67;58.47;101495.19;5034380;28;20049;-56
2023/05/05 00:19:08;;;;;;;5.00;4.40;;;;;;;20.66;58.38;101496.16;5034114;28;20046;-56
2023/05/05 00:21:37;;;;;;;5.00;3.78;;;;;;;20.66;58.51;101493.47;5034221;28;20053;-56
2023/05/05 00:24:04;;;;;;;5.82;3.58;;;;;;;20.66;58.57;101499.72;5034316;28;20049;-56
2023/05/05 00:26:32;;;;;;;4.70;3.70;;;;;;;20.65;58.38;101495.28;5034564;28;20494;-56
2023/05/05 00:28:59;;;;;;;5.30;3.90;;;;;;;20.65;58.44;101492.59;5033566;28;20058;-56
2023/05/05 00:31:27;;;;;;;4.55;3.70;;;;;;;20.66;58.54;101494.34;5039926;28;20049;-57
2023/05/05 00:33:54;;;;;;;4.00;3.13;;;;;;;20.66;58.48;101485.38;5054239;28;20045;-57
2023/05/05 00:36:21;;;;;;;4.43;3.55;;;;;;;20.65;58.54;101487.22;5053662;28;20060;-57
2023/05/05 00:38:49;;;;;;;4.68;3.97;;;;;;;20.65;58.58;101492.59;5054126;28;20049;-57
2023/05/05 00:41:16;;;;;;;4.88;3.63;;;;;;;20.66;58.59;101488.06;5054223;28;20052;-57
2023/05/05 00:43:43;;;;;;;4.65;3.53;;;;;;;20.65;58.52;101475.59;5053817;28;20052;-57
2023/05/05 00:46:39;;;;;;;5.40;3.40;;;;;;;20.64;58.51;101485.53;5052468;28;20053;-57
2023/05/05 00:49:07;;;;;;;5.18;3.80;;;;;;;20.65;58.56;101483.69;5053921;28;20531;-57
2023/05/05 00:51:34;;;;;;;6.10;3.83;;;;;;;20.64;58.57;101471.22;5054216;28;20506;-56
2023/05/05 00:54:01;;;;;;;4.28;3.70;;;;;;;20.64;58.40;101480.13;5053593;28;20049;-54
2023/05/05 00:56:29;;;;;;;3.85;3.13;;;;;;;20.64;58.35;101484.66;5054060;28;20045;-54
2023/05/05 00:58:58;;;;;;;4.75;3.90;;;;;;;20.64;58.40;101482.81;5053514;28;20052;-54
2023/05/05 01:01:25;;;;;;;5.60;3.80;;;;;;;20.63;58.33;101474.91;5053558;28;20056;-54
2023/05/05 01:03:52;;;;;;;4.68;3.72;;;;;;;20.63;58.33;101475.75;5053872;28;20049;-54
2023/05/05 01:06:44;;;;;;;4.65;3.55;;;;;;;20.62;58.38;101470.47;5053436;28;20044;-54
2023/05/05 01:09:37;;;;;;;4.53;3.60;;;;;;;20.61;58.38;101472.31;5052304;28;20053;-54
2023/05/05 01:12:14;;;;;;;;;;;;;;;20.64;58.39;101473.91;5052143;28;20059;-54
2023/05/05 01:14:57;;;;;;;3.90;3.42;;;;;;;20.63;58.32;101472.22;5033119;28;20375;-54
2023/05/05 01:17:35;;;;;;;5.13;3.80;;;;;;;20.62;58.35;101467.78;5033439;28;20068;-54
2023/05/05 01:20:21;;;;;;;5.07;3.33;;;;;;;20.61;58.36;101466.06;5033745;28;20046;-55
2023/05/05 01:23:04;;;;;;;4.72;3.80;;;;;;;20.60;58.32;101465.22;5031623;28;20052;-55
2023/05/05 01:25:53;;;;;;;4.00;3.22;;;;;;;20.61;58.26;101458.00;5032039;28;20046;-55
2023/05/05 01:28:35;;;;;;;6.88;4.05;;;;;;;20.61;58.15;101452.63;5031499;28;20053;-55
2023/05/05 01:31:27;;;;;;;6.43;3.87;;;;;;;20.61;58.13;101456.16;5030970;28;20053;-55
2023/05/05 01:34:00;;;;;;;4.78;3.63;;;;;;;20.61;58.13;101458.84;5033062;28;20289;-55
2023/05/05 01:36:35;;;;;;;4.70;3.95;;;;;;;20.60;58.13;101457.16;5033082;28;20046;-55
2023/05/05 01:39:05;;;;;;;6.97;3.50;;;;;;;20.60;58.12;101457.16;5033264;28;20056;-55
2023/05/05 01:41:40;;;;;;;4.32;3.42;;;;;;;20.60;58.11;101462.53;5032800;28;20381;-55
2023/05/05 01:44:09;;;;;;;5.75;3.78;;;;;;;20.60;58.11;101451.78;5033074;28;20409;-54
2023/05/05 01:46:37;;;;;;;7.90;3.80;;;;;;;20.60;58.14;101454.47;5040763;28;20048;-54
2023/05/05 01:49:08;;;;;;;5.55;3.80;;;;;;;20.59;58.11;101452.75;5051790;28;20049;-54
2023/05/05 01:51:38;;;;;;;5.70;3.55;;;;;;;20.60;58.11;101451.78;5052836;28;20045;-54
2023/05/05 01:54:07;;;;;;;4.10;3.03;;;;;;;20.59;58.10;101452.75;5052856;28;20049;-54
2023/05/05 01:56:37;;;;;;;5.22;3.53;;;;;;;20.60;58.15;101449.09;5052914;28;20041;-54
2023/05/05 01:59:06;;;;;;;5.07;4.07;;;;;;;20.59;58.00;101450.06;5051533;28;20049;-54
2023/05/05 02:01:37;;;;;;;4.72;3.72;;;;;;;20.58;57.93;101437.63;5051150;28;20410;-55
2023/05/05 02:04:08;;;;;;;5.55;3.25;;;;;;;20.59;57.96;101442.00;5053155;28;20055;-55
2023/05/05 02:06:38;;;;;;;4.65;3.33;;;;;;;20.60;57.99;101446.41;5052741;28;20056;-55
2023/05/05 02:09:10;;;;;;;3.53;2.95;;;;;;;20.60;57.87;101445.53;5051494;28;20049;-55
2023/05/05 02:11:40;;;;;;;4.55;3.30;;;;;;;20.60;58.07;101451.78;5051654;28;20045;-55
2023/05/05 02:14:09;;;;;;;6.13;3.58;;;;;;;20.60;57.97;101449.09;5044901;28;20050;-55
2023/05/05 02:16:40;;;;;;;6.40;3.75;;;;;;;20.60;58.04;101457.16;5030878;28;20049;-55
2023/05/05 02:19:07;;;;;;;6.28;3.88;;;;;;;20.60;57.75;101457.16;5031381;28;20049;-55
2023/05/05 02:21:35;;;;;;;6.18;3.75;;;;;;;20.61;57.79;101452.63;5047196;28;20539;-55
2023/05/05 02:24:02;;;;;;;4.18;3.40;;;;;;;20.60;57.75;101456.31;5052485;28;20045;-54
2023/05/05 02:26:34;;;;;;;6.85;3.97;;;;;;;20.60;57.76;101457.16;5052589;28;20056;-53
2023/05/05 02:29:11;;;;;;;4.53;3.33;;;;;;;20.59;57.83;101455.44;5052832;28;20534;-54
2023/05/05 02:31:43;;;;;;;5.03;3.70;;;;;;;20.59;57.68;101455.44;5052456;28;20049;-55
2023/05/05 02:34:15;;;;;;;6.25;3.80;;;;;;;20.59;57.67;101454.59;5050708;28;20053;-55
2023/05/05 02:36:44;;;;;;;5.05;3.70;;;;;;;20.58;57.78;101458.25;5052163;28;20507;-55
2023/05/05 02:39:19;;;;;;;6.65;3.30;;;;;;;20.58;57.64;101459.13;5052419;28;20048;-55
2023/05/05 02:41:50;;;;;;;6.72;3.30;;;;;;;20.58;57.67;101458.25;5051063;28;20053;-55
2023/05/05 02:44:26;;;;;;;6.38;3.45;;;;;;;20.58;57.52;101464.50;5039648;28;20060;-54
2023/05/05 02:46:54;;;;;;;4.97;3.78;;;;;;;20.57;57.53;101457.41;5054640;28;20067;-54
2023/05/05 02:49:24;;;;;;;5.10;3.30;;;;;;;20.57;57.76;101461.94;5054684;28;20045;-55
2023/05/05 02:51:56;;;;;;;5.03;3.03;;;;;;;20.57;57.47;101452.03;5055083;28;20060;-55
2023/05/05 02:54:27;;;;;;;4.25;3.40;;;;;;;20.57;57.49;101457.41;5054632;28;20060;-55
2023/05/05 02:56:56;;;;;;;4.90;3.30;;;;;;;20.57;57.51;101462.78;5054218;28;20044;-55
2023/05/05 02:59:49;;;;;;;4.10;3.53;;;;;;;20.57;57.59;101454.72;5055019;28;20056;-55
2023/05/05 03:02:28;;;;;;;5.20;3.20;;;;;;;20.56;57.38;101453.00;5054601;28;20502;-55
2023/05/05 03:05:03;;;;;;;4.28;3.67;;;;;;;20.55;57.42;101448.63;5055828;28;20041;-55
2023/05/05 03:07:41;;;;;;;3.90;3.28;;;;;;;20.56;57.56;101455.69;5054510;28;20049;-55
2023/05/05 03:10:15;;;;;;;4.38;3.50;;;;;;;20.56;57.39;101453.00;5054918;28;20059;-55
2023/05/05 03:12:55;;;;;;;5.75;4.13;;;;;;;20.56;57.35;101444.09;5053951;28;20049;-54
2023/05/05 03:15:51;;;;;;;3.72;3.22;;;;;;;20.56;57.43;101457.53;5044387;28;20052;-55
2023/05/05 03:18:24;;;;;;;4.35;2.90;;;;;;;20.55;57.52;101451.31;5034715;28;20089;-54
2023/05/05 03:21:06;;;;;;;5.55;3.40;;;;;;;20.55;57.43;101454.00;5043341;28;20395;-55
2023/05/05 03:23:36;;;;;;;4.43;3.25;;;;;;;20.54;57.32;101449.59;5054257;28;20056;-55
2023/05/05 03:26:08;;;;;;;5.22;3.53;;;;;;;20.55;57.47;101445.06;5054659;28;20052;-55
2023/05/05 03:28:40;;;;;;;5.30;3.30;;;;;;;20.54;57.37;101441.53;5053717;28;20041;-55
2023/05/05 03:31:17;;;;;;;4.13;3.20;;;;;;;20.55;57.32;101442.38;5055344;28;20049;-54
2023/05/05 03:33:49;;;;;;;7.18;3.65;;;;;;;20.55;57.48;101437.00;5054400;28;20057;-54
2023/05/05 03:36:19;;;;;;;6.22;3.45;;;;;;;20.53;57.36;101429.03;5054116;28;20048;-55
2023/05/05 03:38:47;;;;;;;5.35;3.53;;;;;;;20.53;57.38;101434.41;5055133;28;20041;-54
2023/05/05 03:41:15;;;;;;;5.53;4.10;;;;;;;20.53;57.21;101429.03;5054165;28;20475;-55
2023/05/05 03:43:43;;;;;;;4.97;3.45;;;;;;;20.54;57.44;101437.97;5053557;28;20085;-54
2023/05/05 03:46:10;;;;;;;6.00;3.42;;;;;;;20.53;57.15;101428.19;5054602;28;20430;-55
2023/05/05 03:48:40;;;;;;;4.88;3.67;;;;;;;20.53;57.34;101433.56;5053527;28;20067;-55
2023/05/05 03:51:08;;;;;;;5.80;3.65;;;;;;;20.52;57.29;101432.72;5053421;28;20053;-55
2023/05/05 03:53:35;;;;;;;4.55;3.42;;;;;;;20.52;57.37;101435.41;5053096;28;20487;-54
2023/05/05 03:56:06;;;;;;;4.25;3.40;;;;;;;20.52;57.25;101432.72;5053972;28;20057;-54
2023/05/05 03:58:33;;;;;;;4.60;3.25;;;;;;;20.51;57.36;101436.41;5053328;28;20041;-54
2023/05/05 04:01:01;;;;;;;4.72;3.70;;;;;;;20.53;57.14;101434.41;5054996;28;20483;-54
2023/05/05 04:03:28;;;;;;;3.45;2.80;;;;;;;20.52;57.23;101431.88;5053744;28;20053;-54
2023/05/05 04:05:55;;;;;;;5.53;2.88;;;;;;;20.52;57.17;101431.88;5053139;28;20507;-54
2023/05/05 04:08:23;;;;;;;4.43;3.33;;;;;;;20.52;57.13;101431.88;5054324;28;20518;-54
2023/05/05 04:10:51;;;;;;;6.88;3.42;;;;;;;20.51;57.01;101433.69;5054748;28;20045;-54
2023/05/05 04:13:19;;;;;;;3.63;2.95;;;;;;;20.49;57.09;101423.06;5052402;28;20601;-54
2023/05/05 04:15:47;;;;;;;4.53;3.58;;;;;;;20.51;57.01;101431.00;5051872;28;20053;-54
2023/05/05 04:18:17;;;;;;;4.82;3.92;;;;;;;20.51;57.09;101431.00;5032414;28;20049;-54
2023/05/05 04:20:45;;;;;;;6.72;3.50;;;;;;;20.51;57.11;101428.31;5033033;28;20427;-54
2023/05/05 04:23:13;;;;;;;4.80;3.40;;;;;;;20.51;57.16;101438.22;5032671;28;20064;-54
2023/05/05 04:25:41;;;;;;;4.43;3.58;;;;;;;20.51;57.15;101440.94;5032960;28;20050;-54
2023/05/05 04:28:10;;;;;;;3.55;2.88;;;;;;;20.51;57.15;101436.41;5033242;28;20056;-55
2023/05/05 04:30:37;;;;;;;4.93;3.55;;;;;;;20.51;57.19;101440.94;5032633;28;20056;-55
2023/05/05 04:33:05;;;;;;;3.78;2.95;;;;;;;20.50;57.16;101437.38;5041373;28;20067;-55
2023/05/05 04:35:32;;;;;;;4.88;3.33;;;;;;;20.49;57.21;101436.50;5053275;28;20048;-55
2023/05/05 04:38:00;;;;;;;6.65;3.63;;;;;;;20.49;57.10;101443.72;5052716;28;20053;-55
2023/05/05 04:40:28;;;;;;;5.90;3.42;;;;;;;20.51;56.99;101451.69;5052843;28;20044;-55
2023/05/05 04:42:57;;;;;;;6.13;3.20;;;;;;;20.49;57.04;101451.78;5053306;28;20057;-55
2023/05/05 04:45:24;;;;;;;4.80;3.30;;;;;;;20.50;57.15;101448.13;5052561;28;20395;-55
2023/05/05 04:47:52;;;;;;;3.95;3.33;;;;;;;20.49;57.02;101454.47;5052629;28;20060;-55
2023/05/05 04:50:20;;;;;;;4.80;2.97;;;;;;;20.49;57.06;101449.94;5052852;28;20506;-55
2023/05/05 04:52:48;;;;;;;7.13;3.42;;;;;;;20.49;57.20;101452.63;5053780;28;20048;-55
2023/05/05 04:55:18;;;;;;;6.20;3.50;;;;;;;20.48;57.11;101445.56;5036285;28;20060;-55
2023/05/05 04:57:46;;;;;;;4.68;3.40;;;;;;;20.48;57.07;101448.25;5052376;28;20391;-57
2023/05/05 05:00:13;;;;;;;4.22;3.38;;;;;;;20.48;57.29;101450.94;5053808;28;20060;-56
2023/05/05 05:02:40;;;;;;;5.00;3.22;;;;;;;20.48;57.04;101461.69;5053601;28;20049;-57
2023/05/05 05:05:09;;;;;;;5.32;3.97;;;;;;;20.48;56.90;101461.69;5052630;28;20479;-54
2023/05/05 05:07:36;;;;;;;3.83;3.15;;;;;;;20.48;56.98;101464.38;5053377;28;20107;-54
2023/05/05 05:10:04;;;;;;;5.82;3.55;;;;;;;20.48;57.24;101474.25;5051970;28;20045;-54
2023/05/05 05:12:32;;;;;;;4.97;3.72;;;;;;;20.49;57.08;101467.91;5052456;28;20045;-54
2023/05/05 05:14:59;;;;;;;4.95;3.47;;;;;;;20.48;56.98;101469.75;5051838;28;20064;-54
2023/05/05 05:17:28;;;;;;;5.25;3.42;;;;;;;20.48;56.99;101475.16;5043096;28;20049;-55
2023/05/05 05:20:00;;;;;;;4.53;3.33;;;;;;;20.47;57.04;101473.41;5048822;28;20415;-54
2023/05/05 05:22:29;;;;;;;;;;;;;;;20.48;57.09;101483.22;5052732;28;20057;-54
2023/05/05 05:24:57;;;;;;;6.43;4.15;;;;;;;20.48;57.16;101477.84;5052161;28;20298;-55
2023/05/05 05:27:25;;;;;;;6.05;3.47;;;;;;;20.47;57.06;101476.09;5053241;28;20056;-54
2023/05/05 05:29:53;;;;;;;3.90;3.40;;;;;;;20.48;56.99;101485.00;5052646;28;20049;-54
2023/05/05 05:32:21;;;;;;;4.13;3.58;;;;;;;20.48;57.04;101482.31;5053033;28;20056;-54
2023/05/05 05:34:48;;;;;;;6.70;3.75;;;;;;;20.47;57.02;101476.09;5052099;28;20064;-55
2023/05/05 05:37:16;;;;;;;4.68;2.80;;;;;;;20.47;57.08;101484.16;5051724;28;20049;-54
2023/05/05 05:39:50;;;;;;;4.45;3.60;;;;;;;20.46;56.92;101484.31;5053461;28;20041;-53
2023/05/05 05:42:18;;;;;;;5.97;3.45;;;;;;;20.47;56.98;101480.63;5052228;28;20517;-56
2023/05/05 05:44:45;;;;;;;5.68;4.35;;;;;;;20.47;57.12;101483.31;5051358;28;20068;-56
2023/05/05 05:47:13;;;;;;;4.70;3.47;;;;;;;20.47;57.13;101483.31;5053410;28;20049;-56
2023/05/05 05:49:40;;;;;;;5.15;3.45;;;;;;;20.46;57.12;101479.78;5051870;28;20053;-57
2023/05/05 05:52:08;;;;;;;4.82;3.63;;;;;;;20.47;57.10;101480.63;5051445;28;20053;-57
2023/05/05 05:54:36;;;;;;;5.60;3.30;;;;;;;20.46;57.28;101482.47;5051970;28;20045;-57
2023/05/05 05:57:03;;;;;;;5.63;3.30;;;;;;;20.47;57.30;101486.00;5051548;28;20053;-57
2023/05/05 05:59:31;;;;;;;6.15;3.03;;;;;;;20.45;57.40;101486.09;5051730;28;20056;-57
2023/05/05 06:01:58;;;;;;;4.97;3.60;;;;;;;20.46;57.29;101484.31;5052001;28;20364;-57
2023/05/05 06:04:25;;;;;;;5.10;3.70;;;;;;;20.46;57.41;101487.84;5051196;28;20053;-57
2023/05/05 06:06:54;;;;;;;4.72;3.45;;;;;;;20.46;57.31;101495.06;5051578;28;20499;-57
2023/05/05 06:09:22;;;;;;;4.18;3.45;;;;;;;20.46;57.38;101495.06;5051999;28;20045;-57
2023/05/05 06:11:50;;;;;;;5.03;3.80;;;;;;;20.46;57.45;101492.38;5051477;28;20096;-56
2023/05/05 06:14:17;;;;;;;4.40;3.28;;;;;;;20.46;57.43;101495.91;5052409;28;20053;-57
2023/05/05 06:16:46;;;;;;;5.60;3.70;;;;;;;20.45;57.40;101491.50;5035341;28;20064;-56
2023/05/05 06:19:20;;;;;;;4.47;3.50;;;;;;;20.47;57.42;101491.38;5039363;28;20050;-57
2023/05/05 06:21:48;;;;;;;6.53;3.97;;;;;;;20.46;57.45;101498.59;5035259;28;20483;-56
2023/05/05 06:24:15;;;;;;;5.47;3.60;;;;;;;20.47;57.46;101491.38;5036216;28;20092;-56
2023/05/05 06:26:42;;;;;;;6.72;3.55;;;;;;;20.48;57.60;101495.78;5035455;28;20049;-56
2023/05/05 06:29:10;;;;;;;4.03;3.45;;;;;;;20.48;57.61;101493.09;5036590;28;20049;-57
2023/05/05 06:31:38;;;;;;;7.13;3.03;;;;;;;20.48;57.69;101496.66;5036658;28;20530;-56
2023/05/05 06:34:05;;;;;;;5.18;3.13;;;;;;;20.48;58.00;101493.97;5036073;28;20087;-57
2023/05/05 06:36:33;;;;;;;5.47;3.35;;;;;;;20.50;57.89;101493.88;5035950;28;20045;-57
2023/05/05 06:39:00;;;;;;;7.38;3.30;;;;;;;20.53;58.07;101495.44;5036079;28;20065;-57
2023/05/05 06:41:27;;;;;;;4.25;2.83;;;;;;;20.54;57.89;101494.44;5036519;28;20381;-57
2023/05/05 06:43:55;;;;;;;4.95;3.08;;;;;;;20.54;57.95;101498.03;5036637;28;20045;-57
2023/05/05 06:46:22;;;;;;;5.72;3.45;;;;;;;20.54;57.85;101495.31;5035257;28;20045;-57
2023/05/05 06:48:49;;;;;;;4.47;3.22;;;;;;;20.54;57.91;101487.25;5036310;28;20049;-57
2023/05/05 06:51:16;;;;;;;4.57;3.45;;;;;;;20.56;58.15;101498.75;5036051;28;20041;-57
2023/05/05 06:53:44;;;;;;;5.93;3.45;;;;;;;20.56;58.04;101506.81;5036370;28;20057;-57
2023/05/05 06:56:11;;;;;;;6.13;3.00;;;;;;;20.58;57.95;101504.88;5036260;28;20068;-57
2023/05/05 06:58:38;;;;;;;7.25;3.75;;;;;;;20.58;58.27;101506.66;5036218;28;20045;-57
2023/05/05 07:01:06;;;;;;;6.43;3.60;;;;;;;20.59;58.35;101506.56;5036011;28;20387;-55
2023/05/05 07:03:33;;;;;;;5.35;3.40;;;;;;;20.59;58.45;101497.66;5036078;28;20078;-55
2023/05/05 07:06:01;;;;;;;7.65;5.95;;;;;;;20.59;58.39;101494.94;5036019;28;20056;-55
2023/05/05 07:08:28;;;;;;;14.30;8.68;;;;;;;20.58;58.45;101498.59;5036066;28;20052;-55
2023/05/05 07:10:55;;;;;;;11.35;9.43;;;;;;;20.53;58.52;101498.97;5035644;28;20056;-57
2023/05/05 07:13:22;;;;;;;13.48;11.55;;;;;;;20.49;58.34;101501.06;5035935;28;20068;-57
2023/05/05 07:15:50;;;;;;;13.85;11.75;;;;;;;20.46;58.13;101503.97;5034795;28;20498;-57
2023/05/05 07:18:19;;;;;;;13.55;12.00;;;;;;;20.44;58.31;101505.06;5035916;28;20049;-56
2023/05/05 07:20:46;;;;;;;14.10;11.35;;;;;;;20.42;58.42;101507.91;5035926;28;20052;-56
2023/05/05 07:23:14;;;;;;;16.40;12.30;;;;;;;20.41;58.18;101505.31;5035822;28;20054;-56
2023/05/05 07:25:41;;;;;;;15.80;12.52;;;;;;;20.40;58.48;101503.59;5035883;28;20054;-56
2023/05/05 07:28:09;;;;;;;14.30;12.70;;;;;;;20.40;58.72;101506.28;5035555;28;20112;-56
2023/05/05 07:30:36;;;;;;;13.77;12.25;;;;;;;20.40;58.90;101503.59;5034205;28;20053;-55
2023/05/05 07:33:04;;;;;;;11.75;9.95;;;;;;;20.41;58.69;101502.63;5035964;28;20053;-56
2023/05/05 07:35:31;;;;;;;10.27;8.63;;;;;;;20.44;58.66;101511.28;5035708;28;20498;-56
2023/05/05 07:37:58;;;;;;;12.35;8.93;;;;;;;20.50;58.49;101504.63;5035769;28;20049;-57
2023/05/05 07:40:26;;;;;;;9.27;7.80;;;;;;;20.53;58.55;101509.72;5035535;28;20042;-57
2023/05/05 07:42:53;;;;;;;8.00;7.18;;;;;;;20.58;58.45;101512.06;5042153;28;20044;-57
2023/05/05 07:45:20;;;;;;;9.43;8.05;;;;;;;20.61;58.46;101509.13;5055466;28;20056;-57
2023/05/05 07:47:48;;;;;;;7.93;7.13;;;;;;;20.63;58.39;101497.28;5055690;28;20055;-57
2023/05/05 07:50:15;;;;;;;13.38;10.93;;;;;;;20.63;58.77;101501.81;5055359;28;20051;-57
2023/05/05 07:52:43;;;;;;;9.13;8.15;;;;;;;20.64;58.70;101498.13;5055340;28;20049;-57
2023/05/05 07:55:22;;;;;;;8.88;7.38;;;;;;;20.64;58.44;101490.91;5055152;28;20044;-57
2023/05/05 07:57:49;;;;;;;9.15;6.45;;;;;;;20.67;58.50;101489.81;5055193;28;20053;-57
2023/05/05 08:00:18;;;;;;;8.60;7.05;;;;;;;20.70;58.33;101492.22;5054893;28;20049;-56
2023/05/05 08:02:46;;;;;;;9.43;6.78;;;;;;;20.72;58.36;101492.97;5055037;28;20055;-57
2023/05/05 08:05:14;;;;;;;7.75;6.20;;;;;;;20.74;58.34;101494.56;5055000;28;20045;-56
2023/05/05 08:07:41;;;;;;;8.20;6.38;;;;;;;20.76;58.25;101488.19;5055829;28;20049;-57
2023/05/05 08:10:10;;;;;;;7.85;5.80;;;;;;;20.78;58.32;101491.59;5054600;28;20052;-57
2023/05/05 08:12:38;;;;;;;6.70;5.88;;;;;;;20.81;58.30;101491.38;5054834;28;20045;-55
2023/05/05 08:15:06;;;;;;;9.82;6.85;;;;;;;20.84;58.47;101496.50;5054829;28;20056;-55
2023/05/05 08:17:45;;;;;;;9.35;7.38;;;;;;;20.85;58.38;101498.19;5054831;28;20053;-55
2023/05/05 08:20:13;;;;;;;8.30;7.05;;;;;;;20.86;58.46;101492.69;5054599;28;20045;-59
2023/05/05 08:22:41;;;;;;;8.05;7.22;;;;;;;20.86;58.56;101490.00;5054445;28;20055;-60
2023/05/05 08:25:11;;;;;;;11.32;8.80;;;;;;;20.88;58.34;101503.34;5054558;28;20056;-60
2023/05/05 08:27:40;;;;;;;9.63;8.63;;;;;;;20.89;58.51;101497.81;5053949;28;20068;-60
2023/05/05 08:30:09;;;;;;;9.27;8.00;;;;;;;20.90;58.25;101501.38;5054163;28;20052;-59
2023/05/05 08:32:37;;;;;;;9.65;8.40;;;;;;;20.91;58.33;101498.56;5054296;28;20049;-60
2023/05/05 08:35:05;;;;;;;9.82;7.85;;;;;;;20.92;58.01;101494.88;5054437;28;20048;-60
2023/05/05 08:37:33;;;;;;;9.35;8.43;;;;;;;20.92;57.50;101494.88;5049379;28;20045;-60
2023/05/05 08:40:01;;;;;;;7.95;7.15;;;;;;;20.94;57.48;101494.75;5053787;28;20049;-59
2023/05/05 08:42:29;;;;;;;9.15;8.13;;;;;;;20.95;57.45;101486.56;5053724;28;20068;-60
2023/05/05 08:45:06;;;;;;;10.65;8.20;;;;;;;20.96;56.94;101490.09;5052418;28;20037;-60
2023/05/05 08:47:35;;;;;;;7.82;6.65;;;;;;;20.99;57.01;101487.16;5054460;28;20045;-60
2023/05/05 08:50:04;;;;;;;9.02;6.95;;;;;;;20.98;56.99;101486.31;5053971;28;20049;-59
2023/05/05 08:52:39;;;;;;;9.27;7.15;;;;;;;20.98;57.11;101485.44;5053902;28;20406;-60
2023/05/05 08:55:34;;;;;;;7.47;6.65;;;;;;;20.99;57.20;101479.94;5053951;28;20045;-59
2023/05/05 08:58:04;;;;;;;8.07;6.50;;;;;;;20.98;57.20;101478.25;5051115;28;20053;-59
2023/05/05 09:00:32;;;;;;;8.23;6.30;;;;;;;21.00;57.51;101475.41;5053722;28;20478;-56
2023/05/05 09:03:00;;;;;;;7.03;6.00;;;;;;;21.01;56.84;101470.88;5053324;28;20515;-56
2023/05/05 09:05:28;;;;;;;8.32;6.07;;;;;;;21.02;56.31;101465.34;5033663;28;20056;-56
2023/05/05 09:07:55;;;;;;;5.68;5.07;;;;;;;21.04;55.80;101468.78;5046887;28;20048;-55
2023/05/05 09:10:24;;;;;;;6.40;4.95;;;;;;;21.04;55.28;101468.78;5053493;28;20049;-59
2023/05/05 09:12:52;;;;;;;8.60;5.35;;;;;;;21.05;55.12;101470.50;5053413;28;20049;-59
2023/05/05 09:15:19;;;;;;;6.72;5.18;;;;;;;21.05;55.46;101462.41;5053373;28;20056;-60
2023/05/05 09:17:47;;;;;;;6.35;5.50;;;;;;;21.07;55.68;101456.94;5053871;28;20048;-60
2023/05/05 09:20:15;;;;;;;6.82;5.70;;;;;;;21.06;55.50;101463.25;5053743;28;20430;-55
2023/05/05 09:22:46;;;;;;;7.80;5.43;;;;;;;21.06;55.64;101461.44;5053556;28;20048;-55
2023/05/05 09:25:15;;;;;;;6.70;5.55;;;;;;;21.07;55.45;101455.09;5053441;28;20053;-54
2023/05/05 09:27:45;;;;;;;7.18;5.22;;;;;;;21.07;55.69;101456.94;5053623;28;20406;-55
2023/05/05 09:30:22;;;;;;;7.05;5.93;;;;;;;21.07;55.29;101454.22;5053565;28;20045;-59
2023/05/05 09:32:51;;;;;;;7.88;5.78;;;;;;;21.06;55.56;101456.03;5053451;28;20041;-57
2023/05/05 09:35:20;;;;;;;6.15;5.03;;;;;;;21.08;55.37;101455.94;5053485;28;20367;-57
2023/05/05 09:37:47;;;;;;;5.45;4.75;;;;;;;21.06;55.66;101447.97;5053402;28;20053;-57
2023/05/05 09:40:16;;;;;;;6.45;4.78;;;;;;;21.07;55.65;101444.31;5052745;28;20526;-57
2023/05/05 09:42:44;;;;;;;6.25;4.80;;;;;;;21.07;55.79;101444.31;5051051;28;20064;-57
2023/05/05 09:45:18;;;;;;;7.65;5.05;;;;;;;21.09;56.01;101445.03;5053408;28;20497;-56
2023/05/05 09:47:46;;;;;;;6.30;4.60;;;;;;;21.09;55.88;101447.72;5053257;28;20056;-57
2023/05/05 09:50:17;;;;;;;6.00;4.50;;;;;;;21.11;55.95;101448.47;5053563;28;20052;-57
2023/05/05 09:52:59;;;;;;;6.47;4.63;;;;;;;21.11;55.95;101442.22;5052606;28;20360;-56
2023/05/05 09:55:28;;;;;;;5.63;3.80;;;;;;;21.10;55.97;101438.66;5052040;28;20060;-56
2023/05/05 09:57:55;;;;;;;6.55;3.92;;;;;;;21.12;55.88;101450.16;5053405;28;20379;-56
2023/05/05 10:00:37;;;;;;;4.22;3.83;;;;;;;21.15;55.99;101447.22;5053370;28;20068;-57
2023/05/05 10:03:04;;;;;;;6.75;4.20;;;;;;;21.19;55.67;101439.75;5053307;28;20072;-57
2023/05/05 10:05:32;;;;;;;4.10;3.65;;;;;;;21.19;55.99;101428.97;5053309;28;20048;-57
2023/05/05 10:08:12;;;;;;;5.35;3.78;;;;;;;21.19;55.94;101431.66;5053243;28;20049;-57
2023/05/05 10:10:48;;;;;;;6.72;4.57;;;;;;;21.18;55.85;101427.25;5053348;28;20494;-57
2023/05/05 10:13:19;;;;;;;6.75;3.65;;;;;;;21.17;55.82;101426.38;5053235;28;20049;-57
2023/05/05 10:15:50;;;;;;;6.65;3.53;;;;;;;21.16;56.06;101419.31;5051867;28;20049;-57
2023/05/05 10:18:25;;;;;;;5.07;4.00;;;;;;;21.17;55.95;101422.84;5053104;28;20103;-57
2023/05/05 10:21:02;;;;;;;5.55;3.58;;;;;;;21.14;56.06;101413.19;5053111;28;20049;-57
2023/05/05 10:23:46;;;;;;;4.50;3.80;;;;;;;21.14;56.16;101413.19;5052834;28;20049;-57
2023/05/05 10:26:14;;;;;;;4.40;3.50;;;;;;;21.14;56.05;101413.19;5053129;28;20387;-57
2023/05/05 10:28:49;;;;;;;5.28;3.28;;;;;;;21.14;56.03;101415.88;5053074;28;20057;-57
2023/05/05 10:31:23;;;;;;;4.35;3.47;;;;;;;21.15;56.02;101416.75;5053059;28;20049;-57
2023/05/05 10:33:58;;;;;;;4.55;3.03;;;;;;;21.12;56.08;101412.47;5053185;28;20053;-57
2023/05/05 10:36:27;;;;;;;6.05;3.72;;;;;;;21.12;55.94;101403.53;5053200;28;20041;-57
2023/05/05 10:38:58;;;;;;;4.50;3.38;;;;;;;21.12;55.97;101408.94;5053131;28;20063;-57
2023/05/05 10:41:25;;;;;;;4.35;2.80;;;;;;;21.12;55.95;101409.78;5053165;28;20068;-57
2023/05/05 10:43:57;;;;;;;4.40;3.47;;;;;;;21.13;55.96;101405.25;5053071;28;20045;-57
2023/05/05 10:46:27;;;;;;;5.75;3.88;;;;;;;21.12;55.98;101409.78;5052800;28;20048;-57
2023/05/05 10:49:00;;;;;;;8.73;3.42;;;;;;;21.12;55.43;101407.09;5052953;28;20407;-56
2023/05/05 10:51:36;;;;;;;5.18;2.95;;;;;;;21.14;55.55;101396.16;5053052;28;20037;-57
2023/05/05 10:54:09;;;;;;;5.80;2.97;;;;;;;21.15;55.70;101388.00;5053097;28;20052;-57
2023/05/05 10:56:40;;;;;;;4.20;2.63;;;;;;;21.18;55.41;101393.09;5053017;28;20430;-57
2023/05/05 10:59:36;;;;;;;4.88;2.67;;;;;;;21.21;54.45;101392.84;5052914;28;20052;-58
2023/05/05 11:02:20;;;;;;;3.83;2.92;;;;;;;21.20;52.48;101379.50;5052233;28;20053;-58
2023/05/05 11:05:06;;;;;;;3.33;2.70;;;;;;;21.19;51.96;101381.34;5055227;28;20411;-58
2023/05/05 11:07:33;;;;;;;2.65;2.15;;;;;;;21.19;53.19;101367.03;5056368;28;20407;-58
2023/05/05 11:10:03;;;;;;;3.72;2.95;;;;;;;21.18;51.13;101370.69;5056267;28;20048;-57
2023/05/05 11:12:32;;;;;;;3.90;2.70;;;;;;;21.16;50.60;101359.22;5056389;28;20072;-58
2023/05/05 11:15:26;;;;;;;3.88;2.58;;;;;;;21.14;50.05;101361.16;5056181;28;20474;-58
2023/05/05 11:17:55;;;;;;;3.43;2.23;;;;;;;21.13;50.17;101360.31;5056239;28;20041;-58
2023/05/05 11:20:35;;;;;;;3.45;2.30;;;;;;;21.13;50.76;101363.00;5056266;28;20049;-57
2023/05/05 11:23:02;;;;;;;3.38;2.00;;;;;;;21.14;50.88;101353.09;5056028;28;20076;-58
2023/05/05 11:25:42;;;;;;;3.08;1.90;;;;;;;21.13;51.63;101359.47;5056067;28;20049;-58
2023/05/05 11:28:11;;;;;;;3.00;2.05;;;;;;;21.13;51.72;101354.94;5055948;28;20475;-58
2023/05/05 11:30:54;;;;;;;3.83;2.30;;;;;;;21.14;52.37;101353.94;5055800;28;20417;-57
2023/05/05 11:33:29;;;;;;;3.10;1.92;;;;;;;21.14;52.58;101343.16;5055701;28;20064;-57
2023/05/05 11:36:01;;;;;;;4.07;2.40;;;;;;;21.15;52.82;101344.06;5055681;28;20489;-57
2023/05/05 11:38:35;;;;;;;3.25;2.30;;;;;;;21.15;53.28;101347.59;5055597;28;20052;-57
2023/05/05 11:41:17;;;;;;;3.53;2.38;;;;;;;21.15;53.43;101339.53;5055798;28;20049;-57